Watertown International Airport Watertown US
ICAO: KART
IATA: ART
Category: Medium
Scheduled Services: Yes

Elevation: 325 ft
TransAlt. 18000 ft.

Airport Communications:
WHEELER SACK APP/DEP:128.25
ASOS:133.525
BURLINGTON RDO:122.2
CTAF/UNICOM:123

KART Zoom In..

Runways:

(A) RW 07 length 4999 ft width 150 ft
ILS 111.10 / hdg 65

(B) RW 10 length 5999 ft width 150 ft
---- / hdg 105

(C) RW 25 length 4999 ft width 150 ft
---- / hdg 245

(D) RW 28 length 5999 ft width 150 ft
---- / hdg 285

Location; KART
Day. 30 / Time. 19.56 Zulu
* Altimeter: 29.88
* Temperature: 16° c. 60.8°f.
* Wind from: 240° Speed 06 kn.
Dewpoint: 12° c.
Visibility: 10 Statute Miles.
Clouds: Few 4000 ft.
Clouds: Overcast 7500 ft.
Conditions: Light Rain.

KART 301956Z AUTO 24006KT 10SM -RA FEW040 OVC075 16/12 A2988 RMK AO2 RAB00 SLP116 P0000 T01610117


Wind From 240°
Speed 06 kn.

 
 
jpsmedia worldairports.se 2020   terms of use